sensor_id;sensor_type;location;lat;lon;timestamp;pressure;altitude;pressure_sealevel;temperature;humidity
59375;BME280;45172;55.006;73.460;2023-05-10T00:01:26;101750.47;;;-0.86;62.40
59375;BME280;45172;55.006;73.460;2023-05-10T00:03:52;101738.63;;;-0.82;62.07
59375;BME280;45172;55.006;73.460;2023-05-10T00:06:18;101734.72;;;-0.77;62.61
59375;BME280;45172;55.006;73.460;2023-05-10T00:08:45;101730.00;;;-0.71;62.14
59375;BME280;45172;55.006;73.460;2023-05-10T00:11:11;101725.19;;;-0.66;62.12
59375;BME280;45172;55.006;73.460;2023-05-10T00:13:37;101732.22;;;-0.54;61.53
59375;BME280;45172;55.006;73.460;2023-05-10T00:16:03;101735.84;;;-0.42;62.07
59375;BME280;45172;55.006;73.460;2023-05-10T00:18:29;101726.16;;;-0.33;62.13
59375;BME280;45172;55.006;73.460;2023-05-10T00:20:55;101732.25;;;-0.22;61.83
59375;BME280;45172;55.006;73.460;2023-05-10T00:23:22;101722.44;;;-0.14;61.68
59375;BME280;45172;55.006;73.460;2023-05-10T00:25:48;101745.03;;;0.08;61.98
59375;BME280;45172;55.006;73.460;2023-05-10T00:28:14;101742.06;;;0.25;61.74
59375;BME280;45172;55.006;73.460;2023-05-10T00:30:40;101735.22;;;0.38;60.82
59375;BME280;45172;55.006;73.460;2023-05-10T00:33:06;101741.09;;;0.58;60.90
59375;BME280;45172;55.006;73.460;2023-05-10T00:35:32;101737.47;;;0.78;60.29
59375;BME280;45172;55.006;73.460;2023-05-10T00:37:58;101736.25;;;0.97;59.78
59375;BME280;45172;55.006;73.460;2023-05-10T00:40:24;101753.91;;;1.23;59.67
59375;BME280;45172;55.006;73.460;2023-05-10T00:42:53;101745.31;;;1.36;59.14
59375;BME280;45172;55.006;73.460;2023-05-10T00:45:20;101752.81;;;1.55;58.70
59375;BME280;45172;55.006;73.460;2023-05-10T00:47:45;101742.34;;;1.79;58.35
59375;BME280;45172;55.006;73.460;2023-05-10T00:50:11;101737.47;;;1.96;58.23
59375;BME280;45172;55.006;73.460;2023-05-10T00:52:37;101750.84;;;2.24;57.75
59375;BME280;45172;55.006;73.460;2023-05-10T00:55:04;101752.03;;;2.41;57.69
59375;BME280;45172;55.006;73.460;2023-05-10T00:57:32;101762.63;;;2.43;57.85
59375;BME280;45172;55.006;73.460;2023-05-10T00:59:59;101773.19;;;2.44;57.85
59375;BME280;45172;55.006;73.460;2023-05-10T01:02:25;101783.22;;;2.38;58.82
59375;BME280;45172;55.006;73.460;2023-05-10T01:04:50;101771.38;;;2.43;59.03
59375;BME280;45172;55.006;73.460;2023-05-10T01:07:17;101773.38;;;2.59;58.03
59375;BME280;45172;55.006;73.460;2023-05-10T01:09:44;101780.59;;;2.76;57.25
59375;BME280;45172;55.006;73.460;2023-05-10T01:12:10;101789.41;;;2.90;57.12
59375;BME280;45172;55.006;73.460;2023-05-10T01:14:36;101794.59;;;3.01;56.31
59375;BME280;45172;55.006;73.460;2023-05-10T01:17:04;101790.91;;;3.11;56.53
59375;BME280;45172;55.006;73.460;2023-05-10T01:19:32;101793.25;;;3.20;55.67
59375;BME280;45172;55.006;73.460;2023-05-10T01:24:59;101786.72;;;3.27;55.89
59375;BME280;45172;55.006;73.460;2023-05-10T01:36:03;101789.34;;;3.66;53.91
59375;BME280;45172;55.006;73.460;2023-05-10T01:41:16;101793.66;;;4.06;53.18
59375;BME280;45172;55.006;73.460;2023-05-10T01:43:57;101797.97;;;4.19;53.20
59375;BME280;45172;55.006;73.460;2023-05-10T01:46:39;101782.13;;;4.31;53.34
59375;BME280;45172;55.006;73.460;2023-05-10T01:49:13;101786.19;;;4.68;52.10
59375;BME280;45172;55.006;73.460;2023-05-10T01:51:52;101792.53;;;4.71;51.71
59375;BME280;45172;55.006;73.460;2023-05-10T01:54:21;101787.72;;;4.92;51.59
59375;BME280;45172;55.006;73.460;2023-05-10T01:56:55;101793.09;;;5.09;51.35
59375;BME280;45172;55.006;73.460;2023-05-10T01:59:28;101783.72;;;5.28;51.14
59375;BME280;45172;55.006;73.460;2023-05-10T02:01:57;101786.88;;;5.52;50.59
59375;BME280;45172;55.006;73.460;2023-05-10T02:04:25;101786.91;;;5.67;50.04
59375;BME280;45172;55.006;73.460;2023-05-10T02:06:52;101786.88;;;5.52;50.05
59375;BME280;45172;55.006;73.460;2023-05-10T02:09:20;101768.59;;;5.54;50.02
59375;BME280;45172;55.006;73.460;2023-05-10T02:11:50;101774.56;;;5.66;49.96
59375;BME280;45172;55.006;73.460;2023-05-10T02:14:16;101790.31;;;5.81;49.32
59375;BME280;45172;55.006;73.460;2023-05-10T02:16:44;101786.78;;;5.96;49.01
59375;BME280;45172;55.006;73.460;2023-05-10T02:19:13;101793.09;;;6.29;47.95
59375;BME280;45172;55.006;73.460;2023-05-10T02:21:41;101800.72;;;6.25;48.33
59375;BME280;45172;55.006;73.460;2023-05-10T02:24:10;101790.44;;;6.29;47.98
59375;BME280;45172;55.006;73.460;2023-05-10T02:26:38;101791.56;;;6.50;47.60
59375;BME280;45172;55.006;73.460;2023-05-10T02:29:05;101799.25;;;6.78;46.94
59375;BME280;45172;55.006;73.460;2023-05-10T02:31:33;101803.88;;;6.82;46.76
59375;BME280;45172;55.006;73.460;2023-05-10T02:34:00;101801.97;;;6.80;46.80
59375;BME280;45172;55.006;73.460;2023-05-10T02:36:27;101792.66;;;6.87;46.55
59375;BME280;45172;55.006;73.460;2023-05-10T02:38:55;101786.72;;;7.07;45.73
59375;BME280;45172;55.006;73.460;2023-05-10T02:41:22;101793.69;;;7.23;46.06
59375;BME280;45172;55.006;73.460;2023-05-10T02:43:50;101793.44;;;7.35;45.05
59375;BME280;45172;55.006;73.460;2023-05-10T02:46:18;101793.69;;;7.40;45.04
59375;BME280;45172;55.006;73.460;2023-05-10T02:48:44;101784.13;;;7.42;45.73
59375;BME280;45172;55.006;73.460;2023-05-10T02:51:12;101788.94;;;7.67;44.56
59375;BME280;45172;55.006;73.460;2023-05-10T02:53:41;101782.72;;;7.67;44.12
59375;BME280;45172;55.006;73.460;2023-05-10T02:56:15;101791.63;;;7.51;45.19
59375;BME280;45172;55.006;73.460;2023-05-10T02:58:44;101765.53;;;7.57;44.82
59375;BME280;45172;55.006;73.460;2023-05-10T03:01:10;101781.16;;;7.71;44.27
59375;BME280;45172;55.006;73.460;2023-05-10T03:03:37;101768.19;;;7.75;44.10
59375;BME280;45172;55.006;73.460;2023-05-10T03:06:03;101765.00;;;7.64;44.37
59375;BME280;45172;55.006;73.460;2023-05-10T03:08:29;101762.84;;;7.92;43.95
59375;BME280;45172;55.006;73.460;2023-05-10T03:14:07;101771.19;;;8.38;42.41
59375;BME280;45172;55.006;73.460;2023-05-10T03:16:46;101756.16;;;8.36;41.96
59375;BME280;45172;55.006;73.460;2023-05-10T03:19:26;101754.88;;;8.46;41.38
59375;BME280;45172;55.006;73.460;2023-05-10T03:21:59;101756.03;;;8.71;40.89
59375;BME280;45172;55.006;73.460;2023-05-10T03:24:27;101751.59;;;8.90;40.56
59375;BME280;45172;55.006;73.460;2023-05-10T03:26:55;101753.94;;;9.03;40.23
59375;BME280;45172;55.006;73.460;2023-05-10T03:29:22;101739.47;;;9.15;40.97
59375;BME280;45172;55.006;73.460;2023-05-10T03:31:51;101745.41;;;9.30;40.23
59375;BME280;45172;55.006;73.460;2023-05-10T03:34:23;101753.81;;;9.41;39.56
59375;BME280;45172;55.006;73.460;2023-05-10T03:36:49;101753.75;;;9.40;39.08
59375;BME280;45172;55.006;73.460;2023-05-10T03:39:15;101757.75;;;9.51;38.64
59375;BME280;45172;55.006;73.460;2023-05-10T03:41:41;101759.75;;;9.57;38.25
59375;BME280;45172;55.006;73.460;2023-05-10T03:44:07;101748.53;;;9.63;37.52
59375;BME280;45172;55.006;73.460;2023-05-10T03:46:34;101743.75;;;9.75;37.08
59375;BME280;45172;55.006;73.460;2023-05-10T03:49:00;101744.81;;;9.80;37.67
59375;BME280;45172;55.006;73.460;2023-05-10T03:51:26;101752.53;;;9.97;37.66
59375;BME280;45172;55.006;73.460;2023-05-10T03:53:54;101756.22;;;10.00;36.35
59375;BME280;45172;55.006;73.460;2023-05-10T03:56:21;101748.66;;;10.10;36.78
59375;BME280;45172;55.006;73.460;2023-05-10T03:58:47;101747.50;;;10.26;36.21
59375;BME280;45172;55.006;73.460;2023-05-10T04:01:13;101748.06;;;10.17;35.62
59375;BME280;45172;55.006;73.460;2023-05-10T04:03:39;101747.25;;;10.20;35.59
59375;BME280;45172;55.006;73.460;2023-05-10T04:06:05;101741.19;;;10.22;34.14
59375;BME280;45172;55.006;73.460;2023-05-10T04:08:31;101750.41;;;10.09;34.89
59375;BME280;45172;55.006;73.460;2023-05-10T04:11:07;101745.88;;;10.07;34.96
59375;BME280;45172;55.006;73.460;2023-05-10T04:13:34;101743.13;;;10.26;35.48
59375;BME280;45172;55.006;73.460;2023-05-10T04:16:00;101749.16;;;10.45;34.65
59375;BME280;45172;55.006;73.460;2023-05-10T04:18:28;101740.84;;;10.59;33.75
59375;BME280;45172;55.006;73.460;2023-05-10T04:20:54;101736.13;;;10.74;35.16
59375;BME280;45172;55.006;73.460;2023-05-10T04:23:21;101734.94;;;10.90;33.32
59375;BME280;45172;55.006;73.460;2023-05-10T04:25:47;101726.53;;;11.02;34.32
59375;BME280;45172;55.006;73.460;2023-05-10T04:28:13;101716.31;;;11.13;34.02
59375;BME280;45172;55.006;73.460;2023-05-10T04:30:39;101713.50;;;11.34;33.89
59375;BME280;45172;55.006;73.460;2023-05-10T04:33:06;101713.38;;;11.31;32.29
59375;BME280;45172;55.006;73.460;2023-05-10T04:35:32;101713.19;;;11.25;32.76
59375;BME280;45172;55.006;73.460;2023-05-10T04:37:58;101716.72;;;11.26;32.77
59375;BME280;45172;55.006;73.460;2023-05-10T04:40:24;101712.97;;;11.19;32.57
59375;BME280;45172;55.006;73.460;2023-05-10T04:42:50;101715.00;;;11.26;33.29
59375;BME280;45172;55.006;73.460;2023-05-10T04:45:16;101694.06;;;11.35;32.36
59375;BME280;45172;55.006;73.460;2023-05-10T04:47:42;101706.47;;;11.36;33.07
59375;BME280;45172;55.006;73.460;2023-05-10T04:50:09;101696.59;;;11.58;33.19
59375;BME280;45172;55.006;73.460;2023-05-10T04:52:35;101693.84;;;11.83;33.12
59375;BME280;45172;55.006;73.460;2023-05-10T04:55:02;101696.88;;;11.95;32.23
59375;BME280;45172;55.006;73.460;2023-05-10T04:57:28;101700.19;;;12.15;31.63
59375;BME280;45172;55.006;73.460;2023-05-10T04:59:54;101700.97;;;12.42;30.87
59375;BME280;45172;55.006;73.460;2023-05-10T05:02:21;101681.94;;;12.58;30.76
59375;BME280;45172;55.006;73.460;2023-05-10T05:04:47;101690.28;;;12.71;30.05
59375;BME280;45172;55.006;73.460;2023-05-10T05:07:16;101681.25;;;12.64;30.19
59375;BME280;45172;55.006;73.460;2023-05-10T05:09:42;101679.16;;;12.54;30.09
59375;BME280;45172;55.006;73.460;2023-05-10T05:12:08;101687.91;;;12.50;30.06
59375;BME280;45172;55.006;73.460;2023-05-10T05:14:40;101664.75;;;12.45;29.52
59375;BME280;45172;55.006;73.460;2023-05-10T05:17:07;101681.94;;;12.57;29.99
59375;BME280;45172;55.006;73.460;2023-05-10T05:19:33;101675.94;;;12.66;29.37
59375;BME280;45172;55.006;73.460;2023-05-10T05:21:59;101676.06;;;12.70;29.50
59375;BME280;45172;55.006;73.460;2023-05-10T05:24:25;101663.69;;;12.71;29.49
59375;BME280;45172;55.006;73.460;2023-05-10T05:26:52;101664.13;;;12.54;29.31
59375;BME280;45172;55.006;73.460;2023-05-10T05:29:17;101645.13;;;12.40;29.72
59375;BME280;45172;55.006;73.460;2023-05-10T05:31:44;101650.88;;;12.56;29.39
59375;BME280;45172;55.006;73.460;2023-05-10T05:34:10;101649.59;;;12.73;29.20
59375;BME280;45172;55.006;73.460;2023-05-10T05:36:39;101652.63;;;12.87;28.94
59375;BME280;45172;55.006;73.460;2023-05-10T05:39:04;101646.53;;;12.92;29.55
59375;BME280;45172;55.006;73.460;2023-05-10T05:41:30;101634.41;;;13.03;28.85
59375;BME280;45172;55.006;73.460;2023-05-10T05:43:56;101634.50;;;13.08;27.96
59375;BME280;45172;55.006;73.460;2023-05-10T05:46:22;101618.06;;;13.23;28.79
59375;BME280;45172;55.006;73.460;2023-05-10T05:48:48;101616.63;;;13.37;28.59
59375;BME280;45172;55.006;73.460;2023-05-10T05:51:15;101629.66;;;13.62;27.36
59375;BME280;45172;55.006;73.460;2023-05-10T05:53:41;101633.31;;;13.67;28.31
59375;BME280;45172;55.006;73.460;2023-05-10T05:56:08;101629.28;;;13.83;26.91
59375;BME280;45172;55.006;73.460;2023-05-10T05:58:35;101635.41;;;13.80;27.34
59375;BME280;45172;55.006;73.460;2023-05-10T06:01:01;101629.84;;;13.69;26.88
59375;BME280;45172;55.006;73.460;2023-05-10T06:03:26;101621.91;;;13.73;26.65
59375;BME280;45172;55.006;73.460;2023-05-10T06:05:52;101613.31;;;13.46;27.14
59375;BME280;45172;55.006;73.460;2023-05-10T06:08:19;101608.56;;;13.34;27.69
59375;BME280;45172;55.006;73.460;2023-05-10T06:10:46;101609.31;;;13.28;27.41
59375;BME280;45172;55.006;73.460;2023-05-10T06:13:12;101617.06;;;13.54;27.54
59375;BME280;45172;55.006;73.460;2023-05-10T06:15:38;101617.56;;;13.39;27.14
59375;BME280;45172;55.006;73.460;2023-05-10T06:18:04;101613.47;;;13.52;26.65
59375;BME280;45172;55.006;73.460;2023-05-10T06:20:34;101592.75;;;13.79;26.70
59375;BME280;45172;55.006;73.460;2023-05-10T06:23:01;101606.94;;;13.78;26.36
59375;BME280;45172;55.006;73.460;2023-05-10T06:25:28;101606.75;;;13.68;26.66
59375;BME280;45172;55.006;73.460;2023-05-10T06:27:54;101602.31;;;13.69;26.90
59375;BME280;45172;55.006;73.460;2023-05-10T06:30:24;101601.66;;;13.79;27.18
59375;BME280;45172;55.006;73.460;2023-05-10T06:32:54;101594.16;;;14.03;27.35
59375;BME280;45172;55.006;73.460;2023-05-10T06:35:20;101580.00;;;14.05;26.94
59375;BME280;45172;55.006;73.460;2023-05-10T06:37:46;101576.41;;;14.03;26.11
59375;BME280;45172;55.006;73.460;2023-05-10T06:40:12;101575.97;;;14.24;26.81
59375;BME280;45172;55.006;73.460;2023-05-10T06:42:39;101571.94;;;14.47;26.48
59375;BME280;45172;55.006;73.460;2023-05-10T06:45:05;101577.41;;;14.55;25.64
59375;BME280;45172;55.006;73.460;2023-05-10T06:47:32;101567.63;;;14.55;26.12
59375;BME280;45172;55.006;73.460;2023-05-10T06:49:58;101577.59;;;14.64;25.28
59375;BME280;45172;55.006;73.460;2023-05-10T06:52:24;101564.25;;;14.64;24.84
59375;BME280;45172;55.006;73.460;2023-05-10T06:54:50;101551.44;;;14.43;25.50
59375;BME280;45172;55.006;73.460;2023-05-10T06:57:16;101550.81;;;14.58;25.56
59375;BME280;45172;55.006;73.460;2023-05-10T06:59:43;101554.72;;;14.77;25.15
59375;BME280;45172;55.006;73.460;2023-05-10T07:02:09;101558.56;;;14.93;24.77
59375;BME280;45172;55.006;73.460;2023-05-10T07:04:38;101552.63;;;15.11;25.41
59375;BME280;45172;55.006;73.460;2023-05-10T07:07:05;101542.88;;;15.13;24.09
59375;BME280;45172;55.006;73.460;2023-05-10T07:09:37;101542.06;;;15.19;24.98
59375;BME280;45172;55.006;73.460;2023-05-10T07:12:03;101546.00;;;15.44;24.81
59375;BME280;45172;55.006;73.460;2023-05-10T07:14:29;101545.31;;;15.59;24.53
59375;BME280;45172;55.006;73.460;2023-05-10T07:16:56;101529.53;;;15.75;24.17
59375;BME280;45172;55.006;73.460;2023-05-10T07:19:21;101521.78;;;15.95;24.37
59375;BME280;45172;55.006;73.460;2023-05-10T07:21:48;101519.13;;;15.97;23.28
59375;BME280;45172;55.006;73.460;2023-05-10T07:24:14;101522.78;;;16.05;23.91
59375;BME280;45172;55.006;73.460;2023-05-10T07:26:40;101520.16;;;16.08;22.97
59375;BME280;45172;55.006;73.460;2023-05-10T07:29:06;101516.59;;;16.09;23.26
59375;BME280;45172;55.006;73.460;2023-05-10T07:31:32;101520.28;;;16.21;23.04
59375;BME280;45172;55.006;73.460;2023-05-10T07:33:58;101512.97;;;16.04;23.69
59375;BME280;45172;55.006;73.460;2023-05-10T07:36:25;101506.84;;;16.13;23.42
59375;BME280;45172;55.006;73.460;2023-05-10T07:38:51;101503.22;;;16.09;22.29
59375;BME280;45172;55.006;73.460;2023-05-10T07:41:17;101502.50;;;16.24;22.94
59375;BME280;45172;55.006;73.460;2023-05-10T07:43:43;101506.69;;;15.99;22.71
59375;BME280;45172;55.006;73.460;2023-05-10T07:46:09;101502.16;;;15.92;22.96
59375;BME280;45172;55.006;73.460;2023-05-10T07:48:37;101486.31;;;16.10;23.09
59375;BME280;45172;55.006;73.460;2023-05-10T07:51:03;101496.19;;;16.18;22.27
59375;BME280;45172;55.006;73.460;2023-05-10T07:53:29;101487.09;;;16.00;22.90
59375;BME280;45172;55.006;73.460;2023-05-10T07:55:59;101483.34;;;15.88;23.24
59375;BME280;45172;55.006;73.460;2023-05-10T07:58:25;101476.22;;;15.84;22.28
59375;BME280;45172;55.006;73.460;2023-05-10T08:00:51;101475.44;;;15.92;23.35
59375;BME280;45172;55.006;73.460;2023-05-10T08:03:17;101474.78;;;16.16;22.89
59375;BME280;45172;55.006;73.460;2023-05-10T08:05:43;101475.81;;;16.27;22.99
59375;BME280;45172;55.006;73.460;2023-05-10T08:08:09;101473.94;;;16.20;22.79
59375;BME280;45172;55.006;73.460;2023-05-10T08:10:35;101456.19;;;16.25;22.62
59375;BME280;45172;55.006;73.460;2023-05-10T08:13:01;101461.56;;;16.30;23.26
59375;BME280;45172;55.006;73.460;2023-05-10T08:15:27;101457.25;;;16.45;23.75
59375;BME280;45172;55.006;73.460;2023-05-10T08:17:53;101461.56;;;16.30;22.64
59375;BME280;45172;55.006;73.460;2023-05-10T08:20:20;101445.34;;;16.11;23.08
59375;BME280;45172;55.006;73.460;2023-05-10T08:22:46;101451.69;;;16.23;23.30
59375;BME280;45172;55.006;73.460;2023-05-10T08:25:12;101439.31;;;16.34;23.19
59375;BME280;45172;55.006;73.460;2023-05-10T08:27:38;101445.56;;;16.35;22.65
59375;BME280;45172;55.006;73.460;2023-05-10T08:30:06;101434.84;;;16.33;22.87
59375;BME280;45172;55.006;73.460;2023-05-10T08:32:32;101434.81;;;16.25;23.14
59375;BME280;45172;55.006;73.460;2023-05-10T08:34:58;101434.00;;;16.36;22.47
59375;BME280;45172;55.006;73.460;2023-05-10T08:37:25;101426.03;;;16.42;22.10
59375;BME280;45172;55.006;73.460;2023-05-10T08:40:03;101426.97;;;16.49;22.19
59375;BME280;45172;55.006;73.460;2023-05-10T08:42:30;101412.81;;;16.62;21.54
59375;BME280;45172;55.006;73.460;2023-05-10T08:45:02;101402.25;;;16.84;22.15
59375;BME280;45172;55.006;73.460;2023-05-10T08:47:31;101401.44;;;16.97;21.86
59375;BME280;45172;55.006;73.460;2023-05-10T08:49:58;101397.94;;;17.06;21.87
59375;BME280;45172;55.006;73.460;2023-05-10T08:52:26;101390.84;;;17.13;21.60
59375;BME280;45172;55.006;73.460;2023-05-10T08:54:54;101390.00;;;17.25;21.98
59375;BME280;45172;55.006;73.460;2023-05-10T08:57:21;101374.06;;;17.50;21.37
59375;BME280;45172;55.006;73.460;2023-05-10T08:59:47;101378.59;;;17.84;21.24
59375;BME280;45172;55.006;73.460;2023-05-10T09:02:13;101383.97;;;17.88;20.90
59375;BME280;45172;55.006;73.460;2023-05-10T09:04:40;101378.53;;;17.65;21.07
59375;BME280;45172;55.006;73.460;2023-05-10T09:07:07;101383.06;;;17.83;21.47
59375;BME280;45172;55.006;73.460;2023-05-10T09:09:33;101375.88;;;17.66;21.04
59375;BME280;45172;55.006;73.460;2023-05-10T09:12:00;101358.03;;;17.84;21.99
59375;BME280;45172;55.006;73.460;2023-05-10T09:14:27;101358.94;;;18.03;21.61
59375;BME280;45172;55.006;73.460;2023-05-10T09:16:53;101356.31;;;18.11;20.20
59375;BME280;45172;55.006;73.460;2023-05-10T09:19:21;101353.63;;;18.17;20.86
59375;BME280;45172;55.006;73.460;2023-05-10T09:21:48;101341.13;;;18.18;20.61
59375;BME280;45172;55.006;73.460;2023-05-10T09:24:15;101342.03;;;18.14;20.18
59375;BME280;45172;55.006;73.460;2023-05-10T09:26:48;101336.66;;;18.23;21.11
59375;BME280;45172;55.006;73.460;2023-05-10T09:29:15;101341.09;;;18.12;20.40
59375;BME280;45172;55.006;73.460;2023-05-10T09:31:49;101330.34;;;17.98;20.48
59375;BME280;45172;55.006;73.460;2023-05-10T09:34:28;101329.41;;;17.60;20.62
59375;BME280;45172;55.006;73.460;2023-05-10T09:36:59;101323.84;;;17.01;20.77
59375;BME280;45172;55.006;73.460;2023-05-10T09:39:38;101312.16;;;16.81;21.61
59375;BME280;45172;55.006;73.460;2023-05-10T09:42:09;101321.13;;;16.94;21.04
59375;BME280;45172;55.006;73.460;2023-05-10T09:44:35;101317.56;;;16.88;21.93
59375;BME280;45172;55.006;73.460;2023-05-10T09:47:02;101307.84;;;17.08;21.25
59375;BME280;45172;55.006;73.460;2023-05-10T09:49:29;101307.94;;;17.38;21.13
59375;BME280;45172;55.006;73.460;2023-05-10T09:52:03;101311.53;;;17.59;20.26
59375;BME280;45172;55.006;73.460;2023-05-10T09:54:30;101310.69;;;17.69;20.40
59375;BME280;45172;55.006;73.460;2023-05-10T09:56:57;101305.31;;;17.86;20.55
59375;BME280;45172;55.006;73.460;2023-05-10T09:59:25;101299.06;;;17.83;20.47
59375;BME280;45172;55.006;73.460;2023-05-10T10:01:56;101305.34;;;17.78;20.31
59375;BME280;45172;55.006;73.460;2023-05-10T10:04:23;101300.84;;;17.74;20.32
59375;BME280;45172;55.006;73.460;2023-05-10T10:07:05;101298.19;;;17.80;19.90
59375;BME280;45172;55.006;73.460;2023-05-10T10:09:32;101295.50;;;17.87;20.62
59375;BME280;45172;55.006;73.460;2023-05-10T10:12:02;101289.25;;;17.80;20.63
59375;BME280;45172;55.006;73.460;2023-05-10T10:14:29;101281.22;;;17.78;20.75
59375;BME280;45172;55.006;73.460;2023-05-10T10:16:56;101282.09;;;17.80;20.83
59375;BME280;45172;55.006;73.460;2023-05-10T10:19:22;101283.00;;;17.73;20.42
59375;BME280;45172;55.006;73.460;2023-05-10T10:21:49;101279.38;;;17.48;20.91
59375;BME280;45172;55.006;73.460;2023-05-10T10:24:16;101264.19;;;17.42;20.76
59375;BME280;45172;55.006;73.460;2023-05-10T10:26:42;101263.28;;;17.28;20.56
59375;BME280;45172;55.006;73.460;2023-05-10T10:29:29;101266.91;;;17.41;20.08
59375;BME280;45172;55.006;73.460;2023-05-10T10:34:55;101270.44;;;17.32;20.60
59375;BME280;45172;55.006;73.460;2023-05-10T10:37:21;101267.78;;;17.38;19.97
59375;BME280;45172;55.006;73.460;2023-05-10T10:39:48;101258.84;;;17.33;20.29
59375;BME280;45172;55.006;73.460;2023-05-10T10:42:45;101265.97;;;17.38;20.41
59375;BME280;45172;55.006;73.460;2023-05-10T10:45:15;101265.09;;;17.44;19.88
59375;BME280;45172;55.006;73.460;2023-05-10T10:47:41;101269.53;;;17.31;20.04
59375;BME280;45172;55.006;73.460;2023-05-10T10:50:09;101267.75;;;17.25;19.83
59375;BME280;45172;55.006;73.460;2023-05-10T10:52:39;101265.06;;;17.29;20.09
59375;BME280;45172;55.006;73.460;2023-05-10T10:55:27;101262.38;;;17.21;19.56
59375;BME280;45172;55.006;73.460;2023-05-10T10:57:56;101255.22;;;17.12;20.08
59375;BME280;45172;55.006;73.460;2023-05-10T11:00:35;101254.31;;;17.08;20.64
59375;BME280;45172;55.006;73.460;2023-05-10T11:05:45;101264.94;;;16.93;20.75
59375;BME280;45172;55.006;73.460;2023-05-10T11:08:13;101264.94;;;16.91;20.34
59375;BME280;45172;55.006;73.460;2023-05-10T11:11:09;101256.88;;;16.88;21.31
59375;BME280;45172;55.006;73.460;2023-05-10T11:13:38;101266.75;;;16.98;21.88
59375;BME280;45172;55.006;73.460;2023-05-10T11:18:36;101249.72;;;16.85;20.95
59375;BME280;45172;55.006;73.460;2023-05-10T11:21:04;101241.72;;;16.79;21.92
59375;BME280;45172;55.006;73.460;2023-05-10T11:23:32;101249.69;;;16.68;22.12
59375;BME280;45172;55.006;73.460;2023-05-10T11:26:13;101257.72;;;16.68;21.10
59375;BME280;45172;55.006;73.460;2023-05-10T11:28:43;101247.91;;;16.75;21.44
59375;BME280;45172;55.006;73.460;2023-05-10T11:31:10;101242.56;;;16.78;21.19
59375;BME280;45172;55.006;73.460;2023-05-10T11:33:45;101248.78;;;16.68;22.15
59375;BME280;45172;55.006;73.460;2023-05-10T11:36:16;101241.66;;;16.64;21.94
59375;BME280;45172;55.006;73.460;2023-05-10T11:38:42;101238.97;;;16.64;21.88
59375;BME280;45172;55.006;73.460;2023-05-10T11:41:09;101241.59;;;16.57;22.00
59375;BME280;45172;55.006;73.460;2023-05-10T11:43:40;101245.13;;;16.46;21.76
59375;BME280;45172;55.006;73.460;2023-05-10T11:46:07;101245.06;;;16.39;22.76
59375;BME280;45172;55.006;73.460;2023-05-10T11:48:35;101245.00;;;16.25;22.46
59375;BME280;45172;55.006;73.460;2023-05-10T11:51:01;101242.31;;;16.24;22.45
59375;BME280;45172;55.006;73.460;2023-05-10T11:53:32;101239.56;;;16.13;22.18
59375;BME280;45172;55.006;73.460;2023-05-10T11:58:31;101229.75;;;16.12;22.06
59375;BME280;45172;55.006;73.460;2023-05-10T12:00:59;101225.34;;;16.15;22.73
59375;BME280;45172;55.006;73.460;2023-05-10T12:03:27;101235.16;;;16.21;22.36
59375;BME280;45172;55.006;73.460;2023-05-10T12:05:57;101231.59;;;16.22;22.74
59375;BME280;45172;55.006;73.460;2023-05-10T12:08:25;101237.78;;;16.12;22.65
59375;BME280;45172;55.006;73.460;2023-05-10T12:10:52;101238.66;;;16.09;22.14
59375;BME280;45172;55.006;73.460;2023-05-10T12:13:20;101230.56;;;16.01;22.20
59375;BME280;45172;55.006;73.460;2023-05-10T12:15:47;101227.81;;;15.92;22.48
59375;BME280;45172;55.006;73.460;2023-05-10T12:18:13;101232.25;;;15.90;22.72
59375;BME280;45172;55.006;73.460;2023-05-10T12:20:40;101228.53;;;15.74;21.86
59375;BME280;45172;55.006;73.460;2023-05-10T12:23:09;101234.81;;;15.76;22.34
59375;BME280;45172;55.006;73.460;2023-05-10T12:25:36;101235.69;;;15.75;22.41
59375;BME280;45172;55.006;73.460;2023-05-10T12:28:04;101223.19;;;15.74;22.28
59375;BME280;45172;55.006;73.460;2023-05-10T12:30:32;101216.06;;;15.73;22.03
59375;BME280;45172;55.006;73.460;2023-05-10T12:33:07;101218.66;;;15.62;21.96
59375;BME280;45172;55.006;73.460;2023-05-10T12:35:46;101215.91;;;15.53;21.76
59375;BME280;45172;55.006;73.460;2023-05-10T12:38:34;101217.63;;;15.46;21.71
59375;BME280;45172;55.006;73.460;2023-05-10T12:41:04;101206.06;;;15.45;21.96
59375;BME280;45172;55.006;73.460;2023-05-10T12:43:31;101210.44;;;15.40;21.89
59375;BME280;45172;55.006;73.460;2023-05-10T12:45:58;101210.41;;;15.34;21.75
59375;BME280;45172;55.006;73.460;2023-05-10T12:48:24;101205.84;;;15.24;21.45
59375;BME280;45172;55.006;73.460;2023-05-10T12:50:50;101197.81;;;15.17;21.71
59375;BME280;45172;55.006;73.460;2023-05-10T12:53:16;101191.47;;;15.09;22.12
59375;BME280;45172;55.006;73.460;2023-05-10T12:55:43;101185.25;;;15.09;22.22
59375;BME280;45172;55.006;73.460;2023-05-10T12:58:09;101187.00;;;15.06;22.23
59375;BME280;45172;55.006;73.460;2023-05-10T13:00:35;101178.13;;;15.07;22.13
59375;BME280;45172;55.006;73.460;2023-05-10T13:03:04;101176.28;;;15.03;23.03
59375;BME280;45172;55.006;73.460;2023-05-10T13:05:34;101178.97;;;15.03;23.04
59375;BME280;45172;55.006;73.460;2023-05-10T13:08:00;101160.19;;;14.94;22.27
59375;BME280;45172;55.006;73.460;2023-05-10T13:10:29;101157.50;;;14.91;22.57
59375;BME280;45172;55.006;73.460;2023-05-10T13:12:55;101160.09;;;14.85;22.30
59375;BME280;45172;55.006;73.460;2023-05-10T13:15:22;101159.19;;;14.81;22.54